Tiempo atmosférico en la estación meteorológica de Almendralejo, Badajoz (371 m.)



Fecha
DESCASC
Temp. máxima en grados centígrados (hora)
DESCASC
Temp. mínima en grados centígrados (hora)
DESCASC
Temp. media en grados centígrados
DESCASC
Racha de viento máxima en m/sg (hora)
DESCASC
Velocidad máxima media en intervalos de 10 minutos(hora)
DESCASC
Precipitaciones diarias en mm
DESCASC
Precipitaciones de 00:00 a 06:00 en mm
DESCASC
Precipitaciones de 06:00 a 12:00 en mm
DESCASC
Precipitaciones de 12:00 a 18:00 en mm
DESCASC
Precipitaciones de 18:00 a 24:00 en mm
DESCASC
25-04-2019 15.6 (18:00) 9.7 (23:59) 12.7 14.72 (16:40) 9.72 (13:10) -- 0 0 -- 0
24-04-2019 16.8 (15:40) 6.6 (01:20) 11.7 17.5 (15:20) 12.5 (18:00) 5.4 0 0 5.4 0
23-04-2019 14.5 (00:00) 6.8 (23:59) 10.7 13.89 (14:20) 9.17 (14:20) 8.8 7.2 0 1.6 0
22-04-2019 22.4 (16:40) 9 (00:00) 15.7 13.06 (16:50) 8.61 (16:30) 0 0 0 0 0
21-04-2019 19.5 (16:10) 7.7 (00:00) 13.6 9.72 (14:40) 6.11 (14:10) 0 0 0 0 0
20-04-2019 16.9 (16:50) 8.9 (00:00) 12.9 14.44 (21:10) 9.17 (21:10) 1.2 0 1.2 0 0
19-04-2019 17.9 (18:10) 9.9 (00:00) 13.9 9.44 (18:30) 5 (20:20) 6 0.2 0 0 5.8
18-04-2019 17.9 (17:50) 8.7 (00:00) 13.3 12.22 (19:20) 8.06 (19:20) 7.8 0 0 0 7.8
17-04-2019 21.6 (15:00) 10.8 (00:00) 16.2 16.11 (16:20) 11.11 (16:10) 0 0 0 0 0
16-04-2019 25.2 (18:30) 6.5 (00:00) 15.9 9.72 (16:30) 6.39 (16:30) 0 0 0 0 0
15-04-2019 21.3 (15:00) 13.4 (00:00) 17.3 11.67 (16:00) 7.78 (15:50) 0.2 0 0 0.2 0
14-04-2019 23.6 (18:40) 13.3 (00:00) 18.5 6.67 (16:10) 4.44 (01:30) 0 0 0 0 0
13-04-2019 23.5 (16:30) 8.9 (00:00) 16.2 9.17 (19:20) 6.11 (19:40) 0 0 0 0 0
12-04-2019 20.5 (19:10) 5.9 (00:00) 13.2 6.94 (17:10) 3.06 (19:50) 0 0 0 0 0
11-04-2019 19 (18:20) 6.2 (00:00) 12.6 11.67 (16:50) 5.28 (00:10) 0 0 0 0 0
10-04-2019 17.5 (18:00) 7.2 (00:00) 12.3 12.5 (18:20) 8.06 (19:20) 0 0 0 0 0
09-04-2019 15.8 (15:40) 8.3 (00:00) 12.1 16.67 (15:50) 8.06 (16:10) 1 0 0.2 0.8 0
08-04-2019 17.2 (17:50) 9.3 (00:00) 13.3 13.89 (20:00) 8.89 (19:50) 3.8 3 0.8 0 0
07-04-2019 14 (18:50) 7.9 (00:00) 11 9.44 (13:20) 6.11 (13:20) 6 0.8 0 0.2 5
06-04-2019 14 (14:40) 6.1 (00:00) 10 20 (15:10) 9.72 (15:10) 4.2 0.2 0.6 0.2 3.2
05-04-2019 12.6 (17:30) 4.8 (00:00) 8.7 16.11 (18:00) 11.39 (18:10) 9.4 4 1.8 0.4 3.2
04-04-2019 16.7 (17:30) 3.7 (00:00) 10.2 10.83 (23:20) 6.67 (23:20) 0 0 0 0 0
03-04-2019 17.4 (15:50) 7.2 (00:00) 12.3 10 (15:20) 6.11 (18:00) 0 0 0 0 0
02-04-2019 20.1 (18:30) 7.7 (00:00) 13.9 6.39 (15:50) 3.89 (19:10) 0 0 0 0 0
01-04-2019 17.8 (14:40) 10.7 (00:00) 14.2 9.72 (18:50) 7.78 (18:50) 15 1.2 0.4 4.2 9.2
31-03-2019 20.4 (15:50) 9.2 (00:00) 14.8 10.28 (18:20) 6.39 (18:20) 1 0 0 0 1
30-03-2019 22.2 (16:20) 9.9 (00:00) 16.1 15.56 (20:40) 11.11 (20:40) 4.6 0 0 0 4.6
29-03-2019 21.5 (15:50) 5.2 (00:00) 13.3 10.83 (13:30) 5.28 (01:50) 0 0 0 0 0
28-03-2019 21.5 (17:20) 4.8 (00:00) 13.2 10.83 (14:10) 5.56 (15:20) 0 0 0 0 0
27-03-2019 21.5 (16:40) 8.4 (00:00) 14.9 11.94 (15:40) 7.5 (15:20) 0 0 0 0 0

Gráficas

Temp. máximas Temp. mínimas Temp. medias Precipitaciones Rachas de viento máximas Velocidades máximas media en intervalos de 10 minutos

Datos horarios

Fecha y hora oficial Temperatura (ºC) Velocidad del viento (km/h) Dirección del viento Racha (km/h) Dirección de racha Precipitación (mm) Presión (hPa) Tendencia (hPa) Humedad (%)
2019-04-25 23:00:00 10.3 14 Noroeste 24 Norte 0 -- -- 74
2019-04-25 22:00:00 11.6 15 Norte 29 Noroeste 0 -- -- 65
2019-04-25 21:00:00 13.3 20 Noroeste 38 Noroeste 0 -- -- 58
2019-04-25 20:00:00 14.5 22 Noroeste 41 Oeste 0 -- -- 60
2019-04-25 19:00:00 14.8 25 Noroeste 47 Oeste 0 -- -- 58
2019-04-25 18:00:00 15.6 28 Noroeste 50 Noroeste 0 -- -- 57
2019-04-25 17:00:00 14.8 30 Noroeste 53 Noroeste 0 -- -- 60
2019-04-25 16:00:00 15 35 Oeste 50 Oeste 0 -- -- 64
2019-04-25 15:00:00 12.7 27 Oeste 51 Oeste 0 -- -- 77
2019-04-25 14:00:00 14.7 26 Noroeste 50 Oeste 0 -- -- 61
2019-04-25 13:00:00 13.4 19 Noroeste 42 Oeste -- -- -- 71
2019-04-25 12:00:00 13.5 23 Noroeste 43 Noroeste -- -- -- 69
2019-04-25 11:00:00 11.5 23 Oeste 42 Noroeste 0 -- -- 83
2019-04-25 10:00:00 11.5 23 Noroeste 41 Noroeste 0 -- -- 79
2019-04-25 09:00:00 10.4 21 Noroeste 35 Noroeste 0 -- -- 87
2019-04-25 08:00:00 10.1 21 Noroeste 35 Oeste 0 -- -- 89
2019-04-25 07:00:00 10.3 21 Oeste 32 Noroeste 0 -- -- 88
2019-04-25 06:00:00 10.6 15 Noroeste 30 Noroeste 0 -- -- 87
2019-04-25 05:00:00 10.7 18 Oeste 44 Oeste 0 -- -- 88
2019-04-25 04:00:00 11 28 Oeste 43 Oeste 0 -- -- 82
2019-04-25 03:00:00 11.2 26 Oeste 41 Oeste 0 -- -- 85
2019-04-25 02:00:00 11.2 27 Oeste 38 Noroeste 0 -- -- 86
2019-04-25 01:00:00 11.6 25 Oeste 45 Noroeste 0 -- -- 88
2019-04-25 00:00:00 12.4 28 Noroeste 51 Oeste 0 -- -- 91
2019-04-24 23:00:00 13.2 27 Oeste 38 Oeste 0 -- -- 90
2019-04-24 22:00:00 13.4 27 Oeste 40 Oeste 0 -- -- 86
2019-04-24 21:00:00 14 28 Oeste 55 Oeste 0 -- -- 79
2019-04-24 20:00:00 15.1 31 Oeste 61 Oeste 0 -- -- 72
2019-04-24 19:00:00 15.6 40 Oeste 63 Oeste 0 -- -- 69
2019-04-24 18:00:00 15.4 45 Oeste 62 Oeste 0 -- -- 75
2019-04-24 17:00:00 15.3 42 Oeste 54 Oeste 3.4 -- -- 83
2019-04-24 16:00:00 15 30 Oeste 63 Oeste 1.8 -- -- 88
2019-04-24 15:00:00 15.3 31 Oeste 53 Oeste 0.2 -- -- 89
2019-04-24 14:00:00 14.9 37 Oeste 57 Oeste 0 -- -- 84
2019-04-24 13:00:00 14.1 37 Oeste 59 Sudoeste 0 -- -- 88
2019-04-24 12:00:00 13.7 39 Sudoeste 60 Oeste 0 -- -- 87
2019-04-24 11:00:00 12.7 42 Sudoeste 59 Oeste 0 -- -- 87
2019-04-24 10:00:00 11 35 Sudoeste 57 Oeste 0 -- -- 89
2019-04-24 09:00:00 10.2 31 Sudoeste 52 Sudoeste 0 -- -- 86
2019-04-24 08:00:00 9.5 36 Sudoeste 51 Sudoeste 0 -- -- 83
2019-04-24 07:00:00 9.2 31 Sudoeste 45 Oeste 0 -- -- 83
2019-04-24 06:00:00 8.7 26 Sudoeste 37 Sudoeste 0 -- -- 87
2019-04-24 05:00:00 7.9 17 Sudoeste 28 Sudoeste 0 -- -- 91
2019-04-24 04:00:00 7.4 14 Sudoeste 28 Oeste 0 -- -- 90
2019-04-24 03:00:00 7.1 15 Sudoeste 24 Sudoeste 0 -- -- 91
2019-04-24 02:00:00 6.9 15 Sudoeste 21 Sudoeste 0 -- -- 89
2019-04-24 01:00:00 6.9 14 Sudoeste 21 Sudoeste 0 -- -- 90
2019-04-24 00:00:00 6.8 12 Sudoeste 17 Sudoeste 0 -- -- 89
2019-04-23 23:00:00 7.5 8 Oeste 21 Noroeste 0 -- -- 86
2019-04-23 22:00:00 7.5 15 Oeste 26 Oeste 0 -- -- 86
2019-04-23 21:00:00 7.9 22 Noroeste 43 Oeste 0 -- -- 84
2019-04-23 20:00:00 10.6 13 Noroeste 37 Noroeste 0 -- -- 72
2019-04-23 19:00:00 10.8 27 Noroeste 44 Noroeste 0 -- -- 75
2019-04-23 18:00:00 9.4 28 Norte 41 Norte 0.2 -- -- 82
2019-04-23 17:00:00 9.7 10 Norte 41 Oeste 0 -- -- 80
2019-04-23 16:00:00 9.3 27 Oeste 45 Oeste 0 -- -- 81
2019-04-23 15:00:00 10.6 24 Oeste 50 Oeste 0 -- -- 82
2019-04-23 14:00:00 9.3 26 Oeste 38 Oeste 1 -- -- 85
2019-04-23 13:00:00 9.2 26 Noroeste 49 Noroeste 0.4 -- -- 81
2019-04-23 12:00:00 10.3 25 Noroeste 40 Oeste -- -- -- 73
2019-04-23 11:00:00 10.4 26 Noroeste 42 Oeste 0 -- -- 77
2019-04-23 10:00:00 9.3 23 Noroeste 37 Oeste 0 -- -- 82
2019-04-23 09:00:00 7.7 15 Noroeste 27 Noroeste 0 -- -- 90
2019-04-23 08:00:00 8 16 Oeste 22 Oeste 0 -- -- 91
2019-04-23 07:00:00 8.4 14 Noroeste 28 Noroeste 0 -- -- 91
2019-04-23 06:00:00 9.1 13 Noroeste 29 Noroeste 0 -- -- 93
2019-04-23 05:00:00 9.3 15 Noroeste 29 Noroeste 0.8 -- -- 94
2019-04-23 04:00:00 9.3 18 Noroeste 41 Noroeste 5.6 -- -- 96
2019-04-23 03:00:00 11.8 19 Oeste 35 Oeste 0.8 -- -- 88
2019-04-23 02:00:00 12.8 23 Oeste 36 Oeste 0 -- -- 75
2019-04-23 01:00:00 13.2 22 Oeste 36 Oeste 0 -- -- 76
2019-04-23 00:00:00 14.5 20 Oeste 34 Oeste 0 -- -- 72
2019-04-22 23:00:00 15.7 24 Oeste 37 Oeste 0 -- -- 65
2019-04-22 22:00:00 16.7 16 Noroeste 28 Noroeste 0 -- -- 52
2019-04-22 21:00:00 17.8 22 Oeste 33 Oeste 0 -- -- 48
2019-04-22 20:00:00 18.8 21 Oeste 41 Oeste 0 -- -- 45
2019-04-22 19:00:00 20.1 24 Oeste 41 Oeste 0 -- -- 38
2019-04-22 18:00:00 21.6 23 Noroeste 44 Oeste 0 -- -- 34
2019-04-22 17:00:00 21.4 26 Noroeste 47 Oeste 0 -- -- 34
2019-04-22 16:00:00 22.1 21 Noroeste 43 Sudoeste 0 -- -- 36
2019-04-22 15:00:00 21.3 19 Noroeste 35 Oeste 0 -- -- 36
2019-04-22 14:00:00 21 15 Oeste 30 Oeste 0 -- -- 45
2019-04-22 13:00:00 19.6 12 Oeste 22 Oeste 0 -- -- 48
2019-04-22 12:00:00 18.4 9 Noroeste 14 Oeste 0 -- -- 50
2019-04-22 11:00:00 16.3 2 Norte 9 Sudoeste 0 -- -- 58
2019-04-22 10:00:00 12.7 5 Sur 8 Sudoeste 0 -- -- 78
2019-04-22 09:00:00 10.3 7 Sudoeste 11 Sudoeste 0 -- -- 85
2019-04-22 08:00:00 9 9 Sur 12 Sur 0 -- -- 88
2019-04-22 07:00:00 9.4 8 Sur 10 Sur 0 -- -- 87
2019-04-22 06:00:00 10.1 6 Sur 8 Sur 0 -- -- 82
2019-04-22 05:00:00 10.9 6 Sudoeste 8 Sudoeste 0 -- -- 78
2019-04-22 04:00:00 11.5 6 Sur 12 Sudeste 0 -- -- 82
2019-04-22 03:00:00 12.7 3 Sudoeste -- -- 0 -- -- 70
2019-04-22 02:00:00 13 6 Sudoeste 6 Sudoeste 0 -- -- 72
2019-04-22 01:00:00 13.6 4 Sudoeste 8 Sur 0 -- -- 68
2019-04-22 00:00:00 14 6 Sudoeste 12 Sur 0 -- -- 66
2019-04-21 23:00:00 14.4 4 Sur 9 Sur 0 -- -- 63
2019-04-21 22:00:00 15.1 6 Sur 9 Sur 0 -- -- 62
2019-04-21 21:00:00 16.1 5 Sudeste 12 Sudeste 0 -- -- 56
2019-04-21 20:00:00 16.6 10 Este 20 Sudeste 0 -- -- 51
2019-04-21 19:00:00 17.6 11 Este 24 Este 0 -- -- 46
2019-04-21 18:00:00 18.8 14 Este 27 Este 0 -- -- 44
2019-04-21 17:00:00 18.5 16 Este 31 Este 0 -- -- 44
2019-04-21 16:00:00 19.1 17 Este 33 Nordeste 0 -- -- 46
2019-04-21 15:00:00 19.2 19 Este 35 Este 0 -- -- 44
2019-04-21 14:00:00 18.3 20 Este 32 Nordeste 0 -- -- 47
2019-04-21 13:00:00 16.6 19 Este 30 Este 0 -- -- 56
2019-04-21 12:00:00 15.3 16 Este 27 Nordeste 0 -- -- 60
2019-04-21 11:00:00 14 18 Sudeste 28 Sudeste 0 -- -- 63
2019-04-21 10:00:00 12 13 Este 20 Este 0 -- -- 75
2019-04-21 09:00:00 9.7 12 Nordeste 16 Este 0 -- -- 82
2019-04-21 08:00:00 8.1 7 Nordeste 13 Nordeste 0 -- -- 86
2019-04-21 07:00:00 8.6 4 Sudeste 12 Este 0 -- -- 82
2019-04-21 06:00:00 9 8 Este 11 Este 0 -- -- 82
2019-04-21 05:00:00 9.4 0 Calma 9 Nordeste 0 -- -- 80
2019-04-21 04:00:00 9.3 6 Sur 14 Este 0 -- -- 80
2019-04-21 03:00:00 10.6 7 Sudeste 24 Sudeste 0 -- -- 75
2019-04-21 02:00:00 11.6 18 Sudeste 27 Este 0 -- -- 71
2019-04-21 01:00:00 11.8 14 Sudeste 24 Sudeste 0 -- -- 71
2019-04-21 00:00:00 12.4 12 Sudeste 23 Sudeste 0 -- -- 70
2019-04-20 23:00:00 12.7 12 Este 42 Sur 0 -- -- 69
2019-04-20 22:00:00 12.8 26 Sudeste 52 Sudeste 0 -- -- 69
2019-04-20 21:00:00 13.9 30 Sudeste 50 Sudeste 0 -- -- 63
2019-04-20 20:00:00 15.3 18 Sudeste 39 Este 0 -- -- 66
2019-04-20 19:00:00 16 20 Sudeste 35 Sudeste 0 -- -- 64
2019-04-20 18:00:00 15.9 16 Sudeste 35 Sudeste 0 -- -- 67
2019-04-20 17:00:00 16.9 21 Sudeste 38 Este 0 -- -- 65
2019-04-20 16:00:00 16.2 24 Sudeste 39 Sudeste 0 -- -- 67
2019-04-20 15:00:00 15.1 30 Sudeste 46 Sudeste 0 -- -- 69
2019-04-20 14:00:00 14.8 17 Este 46 Este 0 -- -- 72
2019-04-20 13:00:00 15.3 23 Este 38 Este 0 -- -- 71
2019-04-20 12:00:00 13.2 18 Nordeste 28 Nordeste 0.2 -- -- 85
2019-04-20 11:00:00 11.4 13 Nordeste 19 Nordeste 0 -- -- 95
2019-04-20 10:00:00 10.3 7 Este 13 Este 1 -- -- 96
2019-04-20 09:00:00 9.7 8 Este 17 Nordeste 0 -- -- 93
2019-04-20 08:00:00 9.4 14 Nordeste 23 Nordeste 0 -- -- 91
2019-04-20 07:00:00 9 7 Este 11 Este 0 -- -- 91
2019-04-20 06:00:00 9.2 4 Este 14 Este 0 -- -- 88
2019-04-20 05:00:00 9.1 6 Sudeste 18 Este 0 -- -- 89
2019-04-20 04:00:00 9.4 9 Este 19 Este 0 -- -- 87
2019-04-20 03:00:00 9.6 5 Sudeste 14 Este 0 -- -- 89
2019-04-20 02:00:00 9.9 8 Este 17 Este 0 -- -- 90
2019-04-20 01:00:00 11 10 Este 15 Este 0 -- -- 92
2019-04-20 00:00:00 11.4 8 Este 17 Este 0.4 -- -- 92
2019-04-19 23:00:00 11.7 6 Este 10 Este 0 -- -- 92
2019-04-19 22:00:00 11.6 3 Sudeste 17 Sudoeste 0 -- -- 91
2019-04-19 21:00:00 11.6 14 Sudoeste 32 Sudoeste 4.6 -- -- 90
2019-04-19 20:00:00 13.7 8 Oeste 18 Oeste 0.8 -- -- 78
2019-04-19 19:00:00 14.7 7 Sur 34 Norte 0 -- -- 71
2019-04-19 18:00:00 17.4 9 Sudeste 22 Este 0 -- -- 58
2019-04-19 17:00:00 17.7 10 Este 23 Nordeste 0 -- -- 58
2019-04-19 16:00:00 17.2 12 Nordeste 21 Nordeste 0 -- -- 65
2019-04-19 15:00:00 16.3 9 Nordeste 19 Nordeste 0 -- -- 68
2019-04-19 14:00:00 15.4 6 Nordeste 14 Este 0 -- -- 71
2019-04-19 13:00:00 14.7 5 Sudeste 10 Sudeste 0 -- -- 75
2019-04-19 12:00:00 13.2 5 Sudeste 10 Sudeste 0 -- -- 84
2019-04-19 11:00:00 12 4 Sudeste 6 Sudeste 0 -- -- 88
2019-04-19 10:00:00 12 3 Noroeste 6 Noroeste 0 -- -- 88
2019-04-19 09:00:00 10.6 0 Calma 4 Sur 0 -- -- 94
2019-04-19 08:00:00 10 3 Sur 9 Noroeste 0 -- -- 95
2019-04-19 07:00:00 10.1 7 Oeste 8 Oeste 0 -- -- 94
2019-04-19 06:00:00 10.3 6 Oeste 11 Oeste 0 -- -- 92
2019-04-19 05:00:00 10.5 5 Noroeste 12 Noroeste 0 -- -- 92
2019-04-19 04:00:00 10.3 7 Oeste 12 Noroeste 0 -- -- 93
2019-04-19 03:00:00 10.3 6 Noroeste 11 Oeste 0 -- -- 94
2019-04-19 02:00:00 10.7 7 Oeste 13 Oeste 0 -- -- 93
2019-04-19 01:00:00 10.5 9 Oeste 18 Sudoeste 0.2 -- -- 92
2019-04-19 00:00:00 10.4 9 Oeste 14 Oeste 0.8 -- -- 92
2019-04-18 23:00:00 10.2 12 Oeste 30 Noroeste 2.8 -- -- 93
2019-04-18 22:00:00 11 20 Oeste 35 Oeste 4.2 -- -- 87
2019-04-18 21:00:00 12.3 26 Oeste 39 Sudoeste 0 -- -- 72
2019-04-18 20:00:00 13.1 21 Sudoeste 44 Sudoeste 0 -- -- 73
2019-04-18 19:00:00 16.6 14 Noroeste 23 Noroeste 0 -- -- 52
2019-04-18 18:00:00 17.5 12 Este 22 Norte 0 -- -- 53
2019-04-18 17:00:00 16.9 7 Sudeste 15 Norte 0 -- -- 57
2019-04-18 16:00:00 16.1 8 Noroeste 20 Oeste 0 -- -- 52
2019-04-18 15:00:00 16.4 11 Noroeste 22 Noroeste 0 -- -- 58
2019-04-18 14:00:00 16.5 12 Noroeste 22 Oeste 0 -- -- 57
2019-04-18 13:00:00 15.3 12 Noroeste 22 Noroeste 0 -- -- 67
2019-04-18 12:00:00 14.4 8 Noroeste 16 Oeste 0 -- -- 71
2019-04-18 11:00:00 14.4 6 Nordeste 13 Norte 0 -- -- 72
2019-04-18 10:00:00 12.1 5 Sudoeste 10 Sur 0 -- -- 82
2019-04-18 09:00:00 9.9 7 Sur 16 Sur 0 -- -- 88
2019-04-18 08:00:00 9.1 9 Sur 12 Sudoeste 0 -- -- 88
2019-04-18 07:00:00 8.9 6 Sur 11 Sur 0 -- -- 89
2019-04-18 06:00:00 9.5 9 Sur 12 Sur 0 -- -- 88
2019-04-18 05:00:00 9.5 4 Sudeste 8 Sur 0 -- -- 88
2019-04-18 04:00:00 10.1 5 Sur 10 Sudoeste 0 -- -- 86
2019-04-18 03:00:00 10.4 5 Sur 22 Sudoeste 0 -- -- 84
2019-04-18 02:00:00 11.3 17 Sudoeste 31 Sudoeste 0 -- -- 80
2019-04-18 01:00:00 11.2 25 Sudoeste 32 Sudoeste 0 -- -- 81
2019-04-18 00:00:00 12.1 17 Oeste 27 Oeste 0 -- -- 78
2019-04-17 23:00:00 12.6 20 Sudoeste 29 Oeste 0 -- -- 74
2019-04-17 22:00:00 12.7 20 Sudoeste 32 Sudoeste 0 -- -- 76
2019-04-17 21:00:00 12.8 25 Sudoeste 41 Sudoeste 0 -- -- 78
2019-04-17 20:00:00 14 24 Sudoeste 36 Oeste 0 -- -- 67
2019-04-17 19:00:00 13.9 28 Oeste 39 Oeste 0 -- -- 71
2019-04-17 18:00:00 13.7 28 Oeste 49 Noroeste 0 -- -- 80
2019-04-17 17:00:00 19.8 29 Oeste 58 Sudoeste 0 -- -- 54
2019-04-17 16:00:00 21.5 33 Sudoeste 53 Sudoeste 0 -- -- 45
2019-04-17 15:00:00 21.6 32 Sudoeste 49 Sudoeste 0 -- -- 44
2019-04-17 14:00:00 19.7 26 Sudoeste 41 Sudoeste 0 -- -- 50
2019-04-17 13:00:00 18.3 19 Sudoeste 31 Sudoeste 0 -- -- 53
2019-04-17 12:00:00 17.1 9 Sudoeste 19 Sudoeste 0 -- -- 51
2019-04-17 11:00:00 16 13 Sudoeste 19 Sudoeste 0 -- -- 54
2019-04-17 10:00:00 13.3 7 Sur 10 Sur 0 -- -- 64
2019-04-17 09:00:00 11.6 6 Sudeste 10 Sur 0 -- -- 68
2019-04-17 08:00:00 10.9 8 Sudeste 9 Sudeste 0 -- -- 70
2019-04-17 07:00:00 11.2 7 Sur 13 Sur 0 -- -- 67
2019-04-17 06:00:00 12 8 Sur 17 Sur 0 -- -- 63
2019-04-17 05:00:00 13 6 Sur 15 Sudoeste 0 -- -- 60
2019-04-17 04:00:00 13.6 8 Sur 17 Sudoeste 0 -- -- 57
2019-04-17 03:00:00 15.2 15 Sudoeste 22 Sur 0 -- -- 53
2019-04-17 02:00:00 15.4 11 Sur 21 Sudoeste 0 -- -- 50
2019-04-17 01:00:00 16.7 11 Sudoeste 25 Sudoeste 0 -- -- 46
2019-04-17 00:00:00 16.1 15 Sudoeste 18 Sudoeste 0 -- -- 46
2019-04-16 23:00:00 17.5 10 Sudoeste 16 Sur 0 -- -- 41
2019-04-16 22:00:00 19.1 13 Sudoeste 27 Sudoeste 0 -- -- 38
2019-04-16 21:00:00 20.9 19 Sudoeste 35 Sudoeste 0 -- -- 33
2019-04-16 20:00:00 22.9 18 Sudoeste 34 Sudoeste 0 -- -- 29
2019-04-16 19:00:00 24.9 23 Sudoeste 35 Sudoeste 0 -- -- 26
2019-04-16 18:00:00 25 18 Sudoeste 34 Sur 0 -- -- 26
2019-04-16 17:00:00 24.7 14 Sur 35 Sudoeste 0 -- -- 25
2019-04-16 16:00:00 24.1 16 Sur 31 Sudoeste 0 -- -- 26
2019-04-16 15:00:00 23 12 Sudoeste 33 Sudoeste 0 -- -- 32
2019-04-16 14:00:00 21.2 14 Sudeste 26 Sur 0 -- -- 38
2019-04-16 13:00:00 19.8 12 Sur 24 Sur 0 -- -- 41
2019-04-16 12:00:00 17.7 14 Sur 25 Sur 0 -- -- 54
2019-04-16 11:00:00 15.5 10 Sur 17 Sur 0 -- -- 65
2019-04-16 10:00:00 12.7 8 Sur 13 Sur 0 -- -- 80
2019-04-16 09:00:00 9 7 Sur 11 Sur 0 -- -- 90
2019-04-16 08:00:00 6.6 8 Sur 11 Sur 0 -- -- 93
2019-04-16 07:00:00 7.5 3 Sur 11 Oeste 0 -- -- 91
2019-04-16 06:00:00 7.8 7 Sudoeste 12 Sudeste 0 -- -- 89
2019-04-16 05:00:00 9.8 3 Noroeste 5 Oeste 0 -- -- 85
2019-04-16 04:00:00 10.7 4 Noroeste 10 Noroeste 0 -- -- 83
2019-04-16 03:00:00 11.3 7 Noroeste 19 Noroeste 0 -- -- 81
2019-04-16 02:00:00 12.1 12 Noroeste 18 Noroeste 0 -- -- 78
2019-04-16 01:00:00 12.9 9 Noroeste 18 Noroeste 0 -- -- 74
2019-04-16 00:00:00 13.9 9 Noroeste 23 Noroeste 0 -- -- 68
2019-04-15 23:00:00 15.1 11 Noroeste 19 Noroeste 0 -- -- 63
2019-04-15 22:00:00 16.6 15 Noroeste 29 Noroeste 0 -- -- 58
2019-04-15 21:00:00 17.7 15 Noroeste 30 Norte 0 -- -- 54
2019-04-15 20:00:00 18.6 18 Noroeste 31 Noroeste 0 -- -- 51
2019-04-15 19:00:00 19.5 19 Noroeste 39 Oeste 0 -- -- 51
2019-04-15 18:00:00 19.6 19 Noroeste 40 Noroeste 0 -- -- 58
2019-04-15 17:00:00 17.2 26 Noroeste 37 Noroeste 0.2 -- -- 72
2019-04-15 16:00:00 19.3 26 Noroeste 42 Noroeste 0 -- -- 58
2019-04-15 15:00:00 21.3 23 Noroeste 40 Noroeste 0 -- -- 43
2019-04-15 14:00:00 20.8 21 Noroeste 37 Noroeste 0 -- -- 46
2019-04-15 13:00:00 20.3 19 Noroeste 37 Noroeste 0 -- -- 56
2019-04-15 12:00:00 19.3 21 Noroeste 35 Noroeste 0 -- -- 61
2019-04-15 11:00:00 18 15 Noroeste 28 Noroeste 0 -- -- 67
2019-04-15 10:00:00 16.8 13 Noroeste 24 Noroeste 0 -- -- 77
2019-04-15 09:00:00 13.9 4 Sudoeste 9 Oeste 0 -- -- 87
2019-04-15 08:00:00 13.4 8 Sudoeste 14 Sur 0 -- -- 82
2019-04-15 07:00:00 14.2 12 Sudoeste 18 Sur 0 -- -- 80
2019-04-15 06:00:00 13.8 9 Sur 13 Sudoeste 0 -- -- 81
2019-04-15 05:00:00 14.3 11 Sur 13 Sudoeste 0 -- -- 80
2019-04-15 04:00:00 16.1 6 Sudoeste 9 Sudoeste 0 -- -- 76
2019-04-15 03:00:00 16.3 8 Oeste 13 Oeste 0 -- -- 74
2019-04-15 02:00:00 17.4 10 Oeste 17 Oeste 0 -- -- 71
2019-04-15 01:00:00 18.7 8 Sur 12 Sudoeste 0 -- -- 65
2019-04-15 00:00:00 18.3 8 Sur 11 Sudoeste 0 -- -- 66
2019-04-14 23:00:00 19.2 7 Este 9 Este 0 -- -- 63
2019-04-14 22:00:00 19.8 6 Nordeste 9 Este 0 -- -- 61
2019-04-14 21:00:00 21 7 Este 14 Nordeste 0 -- -- 57
2019-04-14 20:00:00 22.4 9 Este 15 Este 0 -- -- 54
2019-04-14 19:00:00 23.1 9 Este 18 Este 0 -- -- 52
2019-04-14 18:00:00 23.1 5 Este 17 Este 0 -- -- 52
2019-04-14 17:00:00 23.3 6 Este 24 Norte 0 -- -- 53
2019-04-14 16:00:00 22.7 6 Este 15 Nordeste 0 -- -- 53
2019-04-14 15:00:00 21.5 4 Norte 15 Este 0 -- -- 57
2019-04-14 14:00:00 20.3 6 Este 15 Nordeste 0 -- -- 63
2019-04-14 13:00:00 18.7 4 Norte 12 Sudoeste 0 -- -- 70
2019-04-14 12:00:00 16.8 6 Sur 9 Sur 0 -- -- 77
2019-04-14 11:00:00 15.7 6 Oeste 14 Oeste 0 -- -- 83
2019-04-14 10:00:00 14.6 10 Sudoeste 14 Sudoeste 0 -- -- 87
2019-04-14 09:00:00 14 10 Oeste 17 Oeste 0 -- -- 89
2019-04-14 08:00:00 13.5 9 Oeste 13 Oeste 0 -- -- 90
2019-04-14 07:00:00 13.3 9 Oeste 14 Noroeste 0 -- -- 89
2019-04-14 06:00:00 13.9 9 Noroeste 16 Noroeste 0 -- -- 88
2019-04-14 05:00:00 13.7 7 Noroeste 14 Noroeste 0 -- -- 91
2019-04-14 04:00:00 13.9 8 Noroeste 13 Noroeste 0 -- -- 89
2019-04-14 03:00:00 14 8 Noroeste 15 Noroeste 0 -- -- 85
2019-04-14 02:00:00 14.5 10 Noroeste 23 Noroeste 0 -- -- 83
2019-04-14 01:00:00 15.1 14 Noroeste 22 Noroeste 0 -- -- 80
2019-04-14 00:00:00 15.7 12 Noroeste 23 Noroeste 0 -- -- 74
2019-04-13 23:00:00 16.7 8 Norte 18 Noroeste 0 -- -- 61
2019-04-13 22:00:00 18.2 15 Norte 28 Noroeste 0 -- -- 52
2019-04-13 21:00:00 19.3 15 Noroeste 23 Noroeste 0 -- -- 40
2019-04-13 20:00:00 20.2 17 Noroeste 33 Noroeste 0 -- -- 37
2019-04-13 19:00:00 22 16 Noroeste 32 Noroeste 0 -- -- 29
2019-04-13 18:00:00 23.3 13 Noroeste 31 Noroeste 0 -- -- 32
2019-04-13 17:00:00 23 17 Noroeste 30 Noroeste 0 -- -- 34
2019-04-13 16:00:00 23.2 13 Noroeste 25 Noroeste 0 -- -- 29
2019-04-13 15:00:00 21.9 10 Noroeste 23 Oeste 0 -- -- 34
2019-04-13 14:00:00 20.9 9 Noroeste 19 Oeste 0 -- -- 37
2019-04-13 13:00:00 20 6 Oeste 16 Noroeste 0 -- -- 39
2019-04-13 12:00:00 18.4 4 Noroeste 8 Noroeste 0 -- -- 50
2019-04-13 11:00:00 15.5 5 Oeste 10 Oeste 0 -- -- 60
2019-04-13 10:00:00 12.2 4 Sur 5 Sur 0 -- -- 74
2019-04-13 09:00:00 10.8 4 Sudoeste 10 Sudoeste 0 -- -- 77
2019-04-13 08:00:00 9.2 7 Sudoeste 9 Sudoeste 0 -- -- 80
2019-04-13 07:00:00 9.4 5 Sur 6 Sur 0 -- -- 78
2019-04-13 06:00:00 10.9 3 Noroeste 10 Noroeste 0 -- -- 77
2019-04-13 05:00:00 11.1 5 Noroeste 13 Oeste 0 -- -- 75
2019-04-13 04:00:00 11.1 8 Noroeste 14 Oeste 0 -- -- 71
2019-04-13 03:00:00 11.8 12 Noroeste 15 Oeste 0 -- -- 59
2019-04-13 02:00:00 12.5 6 Noroeste 9 Oeste 0 -- -- 53
2019-04-13 01:00:00 12.4 8 Oeste 9 Oeste 0 -- -- 53
2019-04-13 00:00:00 14.1 5 Noroeste 12 Noroeste 0 -- -- 45
2019-04-12 23:00:00 15.9 5 Noroeste 10 Noroeste 0 -- -- 39
2019-04-12 22:00:00 16.3 4 Norte 9 Norte 0 -- -- 38
2019-04-12 21:00:00 17.9 7 Norte 16 Norte 0 -- -- 34
2019-04-12 20:00:00 19.3 10 Norte 18 Nordeste 0 -- -- 30
2019-04-12 19:00:00 20.2 7 Norte 18 Nordeste 0 -- -- 28
2019-04-12 18:00:00 20.2 8 Norte 25 Norte 0 -- -- 29
2019-04-12 17:00:00 19.8 8 Nordeste 19 Este 0 -- -- 28
2019-04-12 16:00:00 19.3 8 Nordeste 20 Este 0 -- -- 32
2019-04-12 15:00:00 18.8 10 Este 19 Este 0 -- -- 31
2019-04-12 14:00:00 17.9 7 Sudeste 15 Este 0 -- -- 32
2019-04-12 13:00:00 16.3 6 Este 14 Nordeste 0 -- -- 49
2019-04-12 12:00:00 14.5 7 Nordeste 12 Nordeste 0 -- -- 57
2019-04-12 11:00:00 13.2 2 Sudoeste 6 Oeste 0 -- -- 64
2019-04-12 10:00:00 10.4 3 Norte 6 Nordeste 0 -- -- 76
2019-04-12 09:00:00 7.9 0 Calma 6 Oeste 0 -- -- 87
2019-04-12 08:00:00 6.1 3 Oeste 6 Oeste 0 -- -- 90
2019-04-12 07:00:00 6.7 6 Oeste 9 Oeste 0 -- -- 88
2019-04-12 06:00:00 7.9 6 Oeste 10 Noroeste 0 -- -- 82
2019-04-12 05:00:00 8.6 5 Noroeste 11 Noroeste 0 -- -- 81
2019-04-12 04:00:00 9 7 Noroeste 13 Noroeste 0 -- -- 83
2019-04-12 03:00:00 9.1 8 Noroeste 12 Oeste 0 -- -- 83
2019-04-12 02:00:00 10.4 5 Noroeste 12 Noroeste 0 -- -- 74
2019-04-12 01:00:00 11.3 5 Noroeste 15 Noroeste 0 -- -- 67
2019-04-12 00:00:00 12.3 11 Noroeste 18 Noroeste 0 -- -- 56
2019-04-11 23:00:00 12.5 7 Nordeste 10 Nordeste 0 -- -- 49
2019-04-11 22:00:00 13.9 9 Nordeste 14 Nordeste 0 -- -- 44
2019-04-11 21:00:00 15.9 9 Norte 17 Nordeste 0 -- -- 40
2019-04-11 20:00:00 17.2 14 Norte 27 Nordeste 0 -- -- 37
2019-04-11 19:00:00 18.8 16 Nordeste 29 Nordeste 0 -- -- 34
2019-04-11 18:00:00 18.9 15 Nordeste 28 Norte 0 -- -- 33
2019-04-11 17:00:00 18.4 11 Norte 42 Norte 0 -- -- 36
2019-04-11 16:00:00 18.1 8 Nordeste 28 Norte 0 -- -- 38
2019-04-11 15:00:00 17.5 14 Nordeste 23 Nordeste 0 -- -- 41
2019-04-11 14:00:00 16.8 10 Noroeste 21 Noroeste 0 -- -- 48
2019-04-11 13:00:00 15.1 4 Nordeste 13 Norte 0 -- -- 60
2019-04-11 12:00:00 13.1 5 Norte 15 Norte 0 -- -- 68
2019-04-11 11:00:00 11.1 8 Norte 15 Noroeste 0 -- -- 79
2019-04-11 10:00:00 9.3 10 Noroeste 14 Noroeste 0 -- -- 84
2019-04-11 09:00:00 7.4 6 Noroeste 11 Noroeste 0 -- -- 92
2019-04-11 08:00:00 6.2 8 Noroeste 12 Noroeste 0 -- -- 93
2019-04-11 07:00:00 6.4 4 Noroeste 17 Noroeste 0 -- -- 92
2019-04-11 06:00:00 6.9 10 Noroeste 18 Noroeste 0 -- -- 91
2019-04-11 05:00:00 7.2 12 Noroeste 18 Noroeste 0 -- -- 90
2019-04-11 04:00:00 7.6 9 Noroeste 16 Noroeste 0 -- -- 89
2019-04-11 03:00:00 8.2 9 Noroeste 18 Noroeste 0 -- -- 86
2019-04-11 02:00:00 8.9 9 Noroeste 18 Noroeste 0 -- -- 83
2019-04-11 01:00:00 9.7 13 Noroeste 30 Noroeste 0 -- -- 80
2019-04-11 00:00:00 10.6 18 Noroeste 31 Noroeste 0 -- -- 76
2019-04-10 23:00:00 11.7 18 Noroeste 29 Noroeste 0 -- -- 70
2019-04-10 22:00:00 12.8 21 Noroeste 34 Noroeste 0 -- -- 65
2019-04-10 21:00:00 14 21 Noroeste 41 Norte 0 -- -- 59
2019-04-10 20:00:00 15.8 26 Noroeste 43 Noroeste 0 -- -- 50
2019-04-10 19:00:00 16.8 28 Norte 45 Norte 0 -- -- 45
2019-04-10 18:00:00 17.5 26 Norte 44 Norte 0 -- -- 42
2019-04-10 17:00:00 16.9 24 Norte 43 Noroeste 0 -- -- 47
2019-04-10 16:00:00 17.1 27 Noroeste 41 Norte 0 -- -- 49
2019-04-10 15:00:00 15.7 22 Norte 40 Noroeste 0 -- -- 52
2019-04-10 14:00:00 15.3 21 Noroeste 37 Noroeste 0 -- -- 56
2019-04-10 13:00:00 13.7 22 Noroeste 44 Noroeste 0 -- -- 66
2019-04-10 12:00:00 12.5 21 Norte 31 Norte 0 -- -- 71
2019-04-10 11:00:00 10.3 15 Noroeste 28 Noroeste 0 -- -- 85
2019-04-10 10:00:00 8.5 18 Noroeste 30 Noroeste 0 -- -- 94
2019-04-10 09:00:00 7.6 16 Noroeste 30 Noroeste 0 -- -- 96
2019-04-10 08:00:00 7.2 12 Noroeste 23 Noroeste 0 -- -- 96
2019-04-10 07:00:00 7.4 13 Noroeste 26 Noroeste 0 -- -- 96
2019-04-10 06:00:00 7.4 12 Noroeste 21 Noroeste 0 -- -- 95
2019-04-10 05:00:00 8 15 Noroeste 22 Oeste 0 -- -- 93
2019-04-10 04:00:00 8.3 12 Noroeste 26 Noroeste 0 -- -- 90
2019-04-10 03:00:00 8.5 12 Noroeste 28 Noroeste 0 -- -- 89
2019-04-10 02:00:00 8.9 12 Noroeste 26 Noroeste 0 -- -- 86
2019-04-10 01:00:00 9.1 13 Noroeste 25 Noroeste 0 -- -- 84
2019-04-10 00:00:00 9.5 15 Noroeste 26 Noroeste 0 -- -- 82
2019-04-09 23:00:00 10.1 17 Noroeste 28 Noroeste 0 -- -- 78
2019-04-09 22:00:00 11.2 20 Noroeste 38 Noroeste 0 -- -- 72
2019-04-09 21:00:00 12.7 23 Noroeste 42 Noroeste 0 -- -- 68
2019-04-09 20:00:00 14.5 27 Noroeste 40 Norte 0 -- -- 62
2019-04-09 19:00:00 15 27 Noroeste 42 Norte 0 -- -- 64
2019-04-09 18:00:00 14.3 24 Norte 40 Norte 0 -- -- 65
2019-04-09 17:00:00 13.7 19 Norte 45 Noroeste 0.2 -- -- 69
2019-04-09 16:00:00 13.9 24 Noroeste 60 Noroeste 0.2 -- -- 74
2019-04-09 15:00:00 13.8 20 Noroeste 46 Noroeste 0.2 -- -- 73
2019-04-09 14:00:00 14.1 24 Noroeste 39 Noroeste 0 -- -- 66
2019-04-09 13:00:00 12 23 Noroeste 44 Noroeste 0.2 -- -- 82
2019-04-09 12:00:00 13 23 Noroeste 39 Noroeste 0 -- -- 74
2019-04-09 11:00:00 10.9 16 Noroeste 44 Oeste 0.2 -- -- 86
2019-04-09 10:00:00 10.6 24 Oeste 35 Oeste 0 -- -- 86
2019-04-09 09:00:00 9.2 22 Oeste 33 Oeste 0 -- -- 90
2019-04-09 08:00:00 8.3 14 Oeste 23 Oeste 0 -- -- 92
2019-04-09 07:00:00 8.7 13 Oeste 21 Oeste 0 -- -- 91
2019-04-09 06:00:00 8.7 14 Oeste 26 Oeste 0 -- -- 91
2019-04-09 05:00:00 8.8 14 Oeste 21 Oeste 0 -- -- 90
2019-04-09 04:00:00 8.5 10 Oeste 20 Oeste 0 -- -- 90
2019-04-09 03:00:00 8.3 13 Oeste 19 Noroeste 0 -- -- 90
2019-04-09 02:00:00 8.6 12 Oeste 22 Noroeste 0 -- -- 86
2019-04-09 01:00:00 9.1 12 Noroeste 24 Oeste 0 -- -- 83
2019-04-09 00:00:00 9.5 12 Oeste 20 Oeste 0 -- -- 86
2019-04-08 23:00:00 9.3 5 Oeste 15 Noroeste 0 -- -- 87
2019-04-08 22:00:00 10.1 11 Noroeste 23 Noroeste 0 -- -- 85
2019-04-08 21:00:00 10.5 15 Noroeste 42 Norte 0 -- -- 81
2019-04-08 20:00:00 11.9 31 Noroeste 50 Norte 0 -- -- 76
2019-04-08 19:00:00 16.4 20 Noroeste 36 Oeste 0 -- -- 48
2019-04-08 18:00:00 16.9 19 Noroeste 40 Oeste 0 -- -- 46
2019-04-08 17:00:00 16.9 19 Noroeste 38 Noroeste 0 -- -- 49
2019-04-08 16:00:00 16.3 21 Noroeste 38 Oeste 0 -- -- 55
2019-04-08 15:00:00 16.1 22 Noroeste 40 Noroeste 0 -- -- 62
2019-04-08 14:00:00 15.8 19 Noroeste 33 Noroeste 0 -- -- 65
2019-04-08 13:00:00 14.1 16 Noroeste 26 Oeste 0 -- -- 72
2019-04-08 12:00:00 14.1 12 Noroeste 24 Noroeste 0 -- -- 82
2019-04-08 11:00:00 13.4 12 Noroeste 19 Oeste 0 -- -- 84
2019-04-08 10:00:00 11.7 12 Noroeste 19 Noroeste 0 -- -- 94
2019-04-08 09:00:00 11.2 8 Noroeste 15 Noroeste 0 -- -- 97
2019-04-08 08:00:00 11.2 6 Noroeste 24 Oeste 0.6 -- -- 97
2019-04-08 07:00:00 11 18 Oeste 26 Oeste 0.2 -- -- 95
2019-04-08 06:00:00 10.9 14 Sudoeste 21 Oeste 1.2 -- -- 93
2019-04-08 05:00:00 11.2 12 Oeste 21 Oeste 0 -- -- 90
2019-04-08 04:00:00 11.2 12 Oeste 22 Oeste 0 -- -- 90
2019-04-08 03:00:00 11.4 12 Sudoeste 24 Oeste 0 -- -- 91
2019-04-08 02:00:00 11.5 12 Oeste 27 Oeste 0 -- -- 93
2019-04-08 01:00:00 11.4 22 Oeste 31 Oeste 1.8 -- -- 94
2019-04-08 00:00:00 11.6 7 Sudoeste 12 Sudoeste 0 -- -- 93
2019-04-07 23:00:00 11.8 10 Oeste 13 Oeste 0 -- -- 92
2019-04-07 22:00:00 12.2 8 Oeste 23 Noroeste 0 -- -- 94
2019-04-07 21:00:00 12.6 14 Noroeste 26 Oeste 0.2 -- -- 93
2019-04-07 20:00:00 13 13 Noroeste 21 Oeste 4.8 -- -- 95
2019-04-07 19:00:00 13.9 17 Oeste 27 Oeste 0 -- -- 86
2019-04-07 18:00:00 13.5 19 Sudoeste 26 Sudoeste 0 -- -- 86
2019-04-07 17:00:00 12.8 17 Sudoeste 26 Oeste 0 -- -- 90
2019-04-07 16:00:00 12.1 17 Sudoeste 26 Oeste 0 -- -- 89
2019-04-07 15:00:00 12.1 17 Oeste 26 Oeste 0.2 -- -- 87
2019-04-07 14:00:00 12 18 Oeste 34 Oeste 0 -- -- 82
2019-04-07 13:00:00 12.1 15 Oeste 23 Noroeste 0 -- -- 79
2019-04-07 12:00:00 11.6 8 Noroeste 23 Oeste 0 -- -- 81
2019-04-07 11:00:00 10.6 11 Noroeste 23 Oeste 0 -- -- 85
2019-04-07 10:00:00 9.6 13 Noroeste 23 Oeste 0 -- -- 86
2019-04-07 09:00:00 8.8 13 Noroeste 28 Oeste 0 -- -- 87
2019-04-07 08:00:00 8.3 14 Oeste 24 Noroeste 0 -- -- 91
2019-04-07 07:00:00 8.3 15 Noroeste 27 Noroeste 0 -- -- 92
2019-04-07 06:00:00 8.1 18 Oeste 31 Noroeste 0 -- -- 92
2019-04-07 05:00:00 8 17 Noroeste 30 Oeste 0 -- -- 92
2019-04-07 04:00:00 8.1 14 Noroeste 33 Oeste 0.2 -- -- 91
2019-04-07 03:00:00 8.1 13 Noroeste 27 Noroeste 0.4 -- -- 93
2019-04-07 02:00:00 8.2 18 Noroeste 30 Oeste 0.2 -- -- 91
2019-04-07 01:00:00 8.1 13 Noroeste 25 Noroeste 0 -- -- 89
2019-04-07 00:00:00 8.1 8 Noroeste 21 Oeste 0 -- -- 92
2019-04-06 23:00:00 8.3 10 Noroeste 24 Noroeste 0.2 -- -- 91
2019-04-06 22:00:00 8.6 17 Noroeste 29 Norte 0.6 -- -- 88
2019-04-06 21:00:00 9.2 10 Noroeste 26 Norte 0.2 -- -- 86
2019-04-06 20:00:00 9.4 18 Noroeste 36 Noroeste 2 -- -- 85
2019-04-06 19:00:00 10.7 18 Noroeste 53 Noroeste 0.2 -- -- 73
2019-04-06 18:00:00 12.4 22 Noroeste 44 Oeste 0 -- -- 64
2019-04-06 17:00:00 11.8 23 Noroeste 40 Noroeste 0 -- -- 64
2019-04-06 16:00:00 9.6 21 Noroeste 72 Norte 0.2 -- -- 80
2019-04-06 15:00:00 13.3 30 Noroeste 49 Noroeste 0 -- -- 56
2019-04-06 14:00:00 12.7 24 Noroeste 41 Oeste 0 -- -- 67
2019-04-06 13:00:00 11.5 26 Noroeste 45 Oeste 0 -- -- 71
2019-04-06 12:00:00 10.5 25 Noroeste 47 Oeste 0 -- -- 78
2019-04-06 11:00:00 9.5 32 Noroeste 44 Oeste 0.2 -- -- 84
2019-04-06 10:00:00 8 19 Oeste 30 Oeste 0.4 -- -- 87
2019-04-06 09:00:00 6.9 15 Oeste 26 Oeste 0 -- -- 89
2019-04-06 08:00:00 6.9 22 Oeste 33 Oeste 0 -- -- 89
2019-04-06 07:00:00 6.9 25 Oeste 36 Oeste 0 -- -- 90
2019-04-06 06:00:00 6.9 23 Oeste 34 Oeste 0 -- -- 91
2019-04-06 05:00:00 6.6 21 Oeste 33 Oeste 0 -- -- 93
2019-04-06 04:00:00 6.8 19 Noroeste 33 Noroeste 0 -- -- 92
2019-04-06 03:00:00 6.7 21 Oeste 36 Noroeste 0 -- -- 91
2019-04-06 02:00:00 7.1 22 Noroeste 35 Oeste 0.2 -- -- 88
2019-04-06 01:00:00 6.9 20 Noroeste 34 Oeste 0 -- -- 89
2019-04-06 00:00:00 6.1 18 Oeste 32 Oeste 0 -- -- 93
2019-04-05 23:00:00 6.7 13 Noroeste 35 Oeste 0.4 -- -- 89
2019-04-05 22:00:00 7.5 18 Noroeste 31 Noroeste 0.6 -- -- 88
2019-04-05 21:00:00 7.8 17 Noroeste 33 Oeste 0 -- -- 85
2019-04-05 20:00:00 7.9 17 Noroeste 28 Noroeste 0 -- -- 87
2019-04-05 19:00:00 7.3 15 Noroeste 57 Oeste 2.2 -- -- 87
2019-04-05 18:00:00 10.8 28 Noroeste 58 Oeste 0 -- -- 62
2019-04-05 17:00:00 11.9 24 Noroeste 41 Noroeste 0 -- -- 59
2019-04-05 16:00:00 10.2 14 Noroeste 40 Noroeste 0.4 -- -- 71
2019-04-05 15:00:00 11.3 18 Noroeste 36 Oeste 0 -- -- 65
2019-04-05 14:00:00 9.3 18 Noroeste 36 Noroeste 0 -- -- 77
2019-04-05 13:00:00 8.5 16 Noroeste 28 Oeste 0 -- -- 82
2019-04-05 12:00:00 6.4 15 Noroeste 29 Noroeste 0 -- -- 89
2019-04-05 11:00:00 4.9 15 Norte 46 Noroeste 1 -- -- 92
2019-04-05 10:00:00 7 25 Noroeste 39 Noroeste 0.8 -- -- 90
2019-04-05 09:00:00 7.9 18 Oeste 26 Oeste 0 -- -- 90
2019-04-05 08:00:00 8 18 Oeste 25 Sudoeste 0 -- -- 87
2019-04-05 07:00:00 8.2 18 Oeste 28 Oeste 0 -- -- 87
2019-04-05 06:00:00 8.2 19 Sudoeste 30 Sudoeste 0 -- -- 87
2019-04-05 05:00:00 8.1 20 Sudoeste 35 Sudoeste 0.8 -- -- 91
2019-04-05 04:00:00 7.8 20 Oeste 33 Sudoeste 2.6 -- -- 92
2019-04-05 03:00:00 7.9 15 Sudoeste 34 Oeste 0.2 -- -- 83
2019-04-05 02:00:00 8.1 22 Sudoeste 31 Oeste 0.2 -- -- 78
2019-04-05 01:00:00 9 11 Noroeste 22 Noroeste 0.2 -- -- 84
2019-04-05 00:00:00 10.5 14 Noroeste 39 Oeste 0 -- -- 67
2019-04-04 23:00:00 11.5 24 Noroeste 35 Oeste 0 -- -- 57
2019-04-04 22:00:00 12.6 18 Noroeste 32 Noroeste 0 -- -- 48
2019-04-04 21:00:00 13.3 15 Noroeste 33 Oeste 0 -- -- 42
2019-04-04 20:00:00 14.7 18 Noroeste 35 Noroeste 0 -- -- 35
2019-04-04 19:00:00 16.1 19 Noroeste 33 Noroeste 0 -- -- 32
2019-04-04 18:00:00 16.5 18 Noroeste 36 Noroeste 0 -- -- 31
2019-04-04 17:00:00 16.4 17 Noroeste 31 Oeste 0 -- -- 28
2019-04-04 16:00:00 15.8 15 Noroeste 32 Noroeste 0 -- -- 28
2019-04-04 15:00:00 15 8 Noroeste 18 Noroeste 0 -- -- 27
2019-04-04 14:00:00 13.6 7 Noroeste 21 Noroeste 0 -- -- 39
2019-04-04 13:00:00 11.6 12 Norte 21 Norte 0 -- -- 45
2019-04-04 12:00:00 9.8 7 Norte 20 Nordeste 0 -- -- 50
2019-04-04 11:00:00 7.9 12 Norte 23 Norte 0 -- -- 57
2019-04-04 10:00:00 6.7 15 Noroeste 24 Noroeste 0 -- -- 61
2019-04-04 09:00:00 5 9 Noroeste 16 Noroeste 0 -- -- 70
2019-04-04 08:00:00 3.7 6 Noroeste 12 Noroeste 0 -- -- 73
2019-04-04 07:00:00 4.5 10 Noroeste 15 Noroeste 0 -- -- 72
2019-04-04 06:00:00 5.1 9 Noroeste 13 Noroeste 0 -- -- 74
2019-04-04 05:00:00 5.5 5 Noroeste 15 Noroeste 0 -- -- 74
2019-04-04 04:00:00 6.5 10 Noroeste 19 Noroeste 0 -- -- 74
2019-04-04 03:00:00 7 9 Noroeste 14 Noroeste 0 -- -- 74
2019-04-04 02:00:00 7.4 9 Noroeste 15 Norte 0 -- -- 69
2019-04-04 01:00:00 8.4 8 Noroeste 12 Norte 0 -- -- 68
2019-04-04 00:00:00 9.7 9 Norte 15 Noroeste 0 -- -- 64
2019-04-03 23:00:00 11.1 9 Norte 22 Noroeste 0 -- -- 59
2019-04-03 22:00:00 13 19 Noroeste 29 Noroeste 0 -- -- 53
2019-04-03 21:00:00 14.6 10 Noroeste 28 Noroeste 0 -- -- 51
2019-04-03 20:00:00 15.8 19 Noroeste 29 Noroeste 0 -- -- 47
2019-04-03 19:00:00 16.7 15 Norte 32 Norte 0 -- -- 45
2019-04-03 18:00:00 16.3 22 Norte 35 Norte 0 -- -- 46
2019-04-03 17:00:00 16.5 18 Noroeste 35 Noroeste 0 -- -- 46
2019-04-03 16:00:00 17.2 21 Noroeste 36 Noroeste 0 -- -- 47
2019-04-03 15:00:00 15.9 18 Noroeste 33 Noroeste 0 -- -- 52
2019-04-03 14:00:00 14.8 17 Noroeste 34 Noroeste 0 -- -- 57
2019-04-03 13:00:00 13.7 14 Noroeste 26 Noroeste 0 -- -- 65
2019-04-03 12:00:00 12.2 13 Noroeste 26 Noroeste 0 -- -- 74
2019-04-03 11:00:00 10.2 17 Noroeste 27 Norte 0 -- -- 81
2019-04-03 10:00:00 9.3 14 Noroeste 24 Noroeste 0 -- -- 85
2019-04-03 09:00:00 7.6 10 Noroeste 19 Noroeste 0 -- -- 90
2019-04-03 08:00:00 7.3 10 Noroeste 20 Noroeste 0 -- -- 92
2019-04-03 07:00:00 8.2 10 Noroeste 17 Noroeste 0 -- -- 90
2019-04-03 06:00:00 8.8 13 Noroeste 19 Oeste 0 -- -- 89
2019-04-03 05:00:00 9.5 10 Noroeste 17 Noroeste 0 -- -- 89
2019-04-03 04:00:00 10.3 7 Noroeste 14 Noroeste 0 -- -- 88
2019-04-03 03:00:00 10.7 10 Oeste 15 Noroeste 0 -- -- 88
2019-04-03 02:00:00 11.9 7 Noroeste 19 Noroeste 0 -- -- 82
2019-04-03 01:00:00 13 12 Noroeste 19 Noroeste 0 -- -- 77
2019-04-03 00:00:00 13.1 10 Oeste 15 Noroeste 0 -- -- 77
2019-04-02 23:00:00 14.5 11 Noroeste 15 Noroeste 0 -- -- 72
2019-04-02 22:00:00 15.6 9 Noroeste 17 Oeste 0 -- -- 65
2019-04-02 21:00:00 16.7 12 Oeste 19 Noroeste 0 -- -- 61
2019-04-02 20:00:00 18.4 12 Noroeste 22 Noroeste 0 -- -- 50
2019-04-02 19:00:00 19.8 12 Oeste 23 Oeste 0 -- -- 49
2019-04-02 18:00:00 19.9 8 Noroeste 18 Noroeste 0 -- -- 48
2019-04-02 17:00:00 19.4 7 Noroeste 18 Oeste 0 -- -- 51
2019-04-02 16:00:00 18.5 6 Noroeste 23 Sudoeste 0 -- -- 48
2019-04-02 15:00:00 18.5 4 Oeste 13 Oeste 0 -- -- 61
2019-04-02 14:00:00 16.9 6 Norte 13 Noroeste 0 -- -- 67
2019-04-02 13:00:00 15.9 5 Noroeste 10 Noroeste 0 -- -- 75
2019-04-02 12:00:00 14.5 5 Noroeste 13 Norte 0 -- -- 82
2019-04-02 11:00:00 13.4 4 Noroeste 10 Noroeste 0 -- -- 82
2019-04-02 10:00:00 11.3 4 Oeste 8 Sudoeste 0 -- -- 92
2019-04-02 09:00:00 8.7 9 Sudoeste 12 Sudoeste 0 -- -- 97
2019-04-02 08:00:00 7.7 9 Sudoeste 12 Sudoeste 0 -- -- 97
2019-04-02 07:00:00 7.8 6 Sudoeste 8 Sudoeste 0 -- -- 96
2019-04-02 06:00:00 8.1 6 Oeste 8 Oeste 0 -- -- 96
2019-04-02 05:00:00 9.1 0 Calma 4 Norte 0 -- -- 94
2019-04-02 04:00:00 8.9 2 Nordeste 5 Sur 0 -- -- 95
2019-04-02 03:00:00 9 4 Sur 8 Sur 0 -- -- 95
2019-04-02 02:00:00 9.5 4 Sudeste 7 Sudeste 0 -- -- 94
2019-04-02 01:00:00 10.3 2 Sur 10 Sudoeste 0 -- -- 91
2019-04-02 00:00:00 10.7 10 Sudoeste 14 Sudoeste 0 -- -- 91
2019-04-01 23:00:00 11.3 8 Sudoeste 13 Sudoeste 0 -- -- 90
2019-04-01 22:00:00 11.6 9 Sudoeste 12 Sudoeste 0 -- -- 93
2019-04-01 21:00:00 11.7 0 Calma 8 Oeste 0.4 -- -- 91
2019-04-01 20:00:00 11.4 5 Noroeste 26 Oeste 7.4 -- -- 92
2019-04-01 19:00:00 12.2 25 Oeste 35 Oeste 1.4 -- -- 87
2019-04-01 18:00:00 14.7 9 Este 19 Este 0 -- -- 76
2019-04-01 17:00:00 13.9 12 Este 24 Norte 4.2 -- -- 85
2019-04-01 16:00:00 17.3 8 Nordeste 19 Nordeste 0 -- -- 61
2019-04-01 15:00:00 17.8 11 Este 18 Nordeste 0 -- -- 63
2019-04-01 14:00:00 17 9 Este 15 Este 0 -- -- 67
2019-04-01 13:00:00 15.9 7 Sur 16 Sudoeste 0 -- -- 70
2019-04-01 12:00:00 14.6 10 Sudeste 15 Sur 0 -- -- 82
2019-04-01 11:00:00 14.4 6 Sudeste 13 Sudoeste 0 -- -- 83
2019-04-01 10:00:00 12.6 7 Sudoeste 11 Sudoeste 0 -- -- 94
2019-04-01 09:00:00 11 8 Sudeste 12 Sur 0.2 -- -- 97
2019-04-01 08:00:00 11 4 Sudeste 9 Sur 0.2 -- -- 96
2019-04-01 07:00:00 10.9 5 Sudeste 10 Sudeste 0 -- -- 95
2019-04-01 06:00:00 11.2 6 Sudeste 9 Este 0.2 -- -- 96
2019-04-01 05:00:00 11.6 0 Calma 6 Norte 0.8 -- -- 94
2019-04-01 04:00:00 11.8 3 Nordeste 5 Oeste 0.2 -- -- 92
2019-04-01 03:00:00 11.8 3 Sur 9 Sur 0 -- -- 91
2019-04-01 02:00:00 11.8 6 Sur 10 Sudeste 0 -- -- 89
2019-04-01 01:00:00 11.8 4 Sudeste 15 Sudeste 0 -- -- 91
2019-04-01 00:00:00 12 9 Este 14 Este 0 -- -- 91
2019-03-31 23:00:00 12.3 6 Sur 10 Sur 0 -- -- 85
2019-03-31 22:00:00 12.6 13 Oeste 25 Sudoeste 0.2 -- -- 82
2019-03-31 21:00:00 12.5 12 Sudoeste 17 Sur 0.4 -- -- 89
2019-03-31 20:00:00 12.5 6 Sur 18 Sudeste 0.4 -- -- 88
2019-03-31 19:00:00 13.7 14 Sudeste 37 Sur 0 -- -- 78
2019-03-31 18:00:00 19.7 6 Nordeste 20 Nordeste 0 -- -- 48
2019-03-31 17:00:00 20.1 9 Nordeste 17 Nordeste 0 -- -- 51
2019-03-31 16:00:00 20.3 9 Noroeste 19 Norte 0 -- -- 51
2019-03-31 15:00:00 19.4 8 Noroeste 18 Noroeste 0 -- -- 60
2019-03-31 14:00:00 18.1 5 Sudoeste 14 Sudoeste 0 -- -- 63
2019-03-31 13:00:00 17.1 4 Norte 12 Nordeste 0 -- -- 67
2019-03-31 12:00:00 14.9 5 Norte 13 Nordeste 0 -- -- 76
2019-03-31 11:00:00 14.2 2 Oeste 7 Sudoeste 0 -- -- 77
2019-03-31 10:00:00 11 5 Sudoeste 8 Sudoeste 0 -- -- 89
2019-03-31 09:00:00 9.2 3 Oeste 5 Sudoeste 0 -- -- 91
2019-03-31 08:00:00 9.2 3 Sudeste 8 Este 0 -- -- 93
2019-03-31 07:00:00 9.2 5 Este 9 Nordeste 0 -- -- 93
2019-03-31 06:00:00 10.3 5 Norte 10 Oeste 0 -- -- 86
2019-03-31 05:00:00 11.2 8 Sudoeste 16 Sudoeste 0 -- -- 80
2019-03-31 03:00:00 11.9 11 Sudeste 21 Este 0 -- -- 85
2019-03-31 01:00:00 13 11 Este 19 Este 0 -- -- 76
2019-03-31 00:00:00 12.8 10 Oeste 14 Oeste 0 -- -- 82
2019-03-30 23:00:00 13.2 9 Noroeste 28 Oeste 2 -- -- 75
2019-03-30 22:00:00 13.3 18 Noroeste 29 Oeste 1.2 -- -- 78
2019-03-30 21:00:00 13.4 10 Oeste 56 Sudoeste 1.4 -- -- 79
2019-03-30 20:00:00 19.3 8 Nordeste 21 Este 0 -- -- 36
2019-03-30 19:00:00 20.7 11 Este 20 Este 0 -- -- 35
2019-03-30 18:00:00 21.8 10 Sudeste 25 Este 0 -- -- 34
2019-03-30 17:00:00 21.3 12 Este 25 Este 0 -- -- 34
2019-03-30 16:00:00 21.6 14 Este 29 Este 0 -- -- 34
2019-03-30 15:00:00 21.4 15 Este 43 Este 0 -- -- 36
2019-03-30 14:00:00 20.6 17 Este 31 Este 0 -- -- 40
2019-03-30 13:00:00 19.8 16 Este 36 Este 0 -- -- 41
2019-03-30 12:00:00 18.1 14 Este 26 Este 0 -- -- 47
2019-03-30 11:00:00 16.9 15 Este 30 Este 0 -- -- 52
2019-03-30 10:00:00 15 15 Sudeste 26 Sudeste 0 -- -- 58
2019-03-30 09:00:00 11.7 10 Sudeste 16 Sur 0 -- -- 70
2019-03-30 08:00:00 10.8 8 Sudeste 16 Sudeste 0 -- -- 73
2019-03-30 07:00:00 9.9 6 Sudeste 11 Sudeste 0 -- -- 70
2019-03-30 06:00:00 10.8 6 Sudeste 12 Sur 0 -- -- 66
2019-03-30 05:00:00 11.7 8 Sur 14 Sur 0 -- -- 62
2019-03-30 04:00:00 11.8 9 Sur 17 Sur 0 -- -- 56
2019-03-30 03:00:00 12.1 10 Sur 19 Sur 0 -- -- 53
2019-03-30 02:00:00 11 10 Sur 14 Sur 0 -- -- 51
2019-03-30 01:00:00 10.8 10 Sur 16 Sudoeste 0 -- -- 47
2019-03-30 00:00:00 12.2 9 Sur 16 Sur 0 -- -- 42
2019-03-29 23:00:00 13.6 11 Sur 15 Sur 0 -- -- 38
2019-03-29 22:00:00 14.4 9 Este 11 Sudeste 0 -- -- 33
2019-03-29 21:00:00 15.1 7 Este 10 Este 0 -- -- 31
2019-03-29 20:00:00 17.4 8 Este 14 Este 0 -- -- 27
2019-03-29 19:00:00 19.9 9 Este 19 Sudeste 0 -- -- 23
2019-03-29 18:00:00 20.9 12 Sudeste 21 Este 0 -- -- 22
2019-03-29 17:00:00 21.4 8 Sudeste 29 Sur 0 -- -- 22
2019-03-29 16:00:00 21.3 9 Sudeste 25 Sur 0 -- -- 22
2019-03-29 15:00:00 20.5 15 Sur 29 Sur 0 -- -- 23
2019-03-29 14:00:00 20 8 Sur 39 Sudeste 0 -- -- 24
2019-03-29 13:00:00 19 16 Sur 29 Sur 0 -- -- 26
2019-03-29 12:00:00 17.6 14 Sur 28 Sudeste 0 -- -- 29
2019-03-29 11:00:00 15.7 13 Sudeste 25 Sudeste 0 -- -- 37
2019-03-29 10:00:00 13 10 Este 15 Este 0 -- -- 51
2019-03-29 09:00:00 10.2 10 Sudeste 15 Sudeste 0 -- -- 57
2019-03-29 08:00:00 6.2 10 Sur 15 Sur 0 -- -- 63
2019-03-29 07:00:00 5.2 10 Sur 14 Sudeste 0 -- -- 64
2019-03-29 06:00:00 6.1 11 Sudeste 17 Sudeste 0 -- -- 61
2019-03-29 05:00:00 6 11 Sur 15 Sur 0 -- -- 55
2019-03-29 04:00:00 6.3 11 Sur 22 Sur 0 -- -- 49
2019-03-29 03:00:00 7.7 14 Sur 24 Sur 0 -- -- 45
2019-03-29 02:00:00 8.7 18 Sur 24 Sur 0 -- -- 41
2019-03-29 01:00:00 8.6 12 Sur 14 Sudeste 0 -- -- 40
2019-03-29 00:00:00 9.3 6 Sur 17 Sudoeste 0 -- -- 33
2019-03-28 23:00:00 12 15 Sudoeste 16 Sudoeste 0 -- -- 35
2019-03-28 22:00:00 12.4 12 Sudoeste 14 Sudoeste 0 -- -- 27
2019-03-28 21:00:00 14 11 Sudoeste 13 Sudoeste 0 -- -- 21
2019-03-28 20:00:00 17.1 8 Sur 19 Sudeste 0 -- -- 18
2019-03-28 19:00:00 19.6 12 Sudeste 27 Sudeste 0 -- -- 16
2019-03-28 18:00:00 20.8 15 Sudeste 28 Sudeste 0 -- -- 15
2019-03-28 17:00:00 21 10 Sudeste 33 Este 0 -- -- 15
2019-03-28 16:00:00 21.1 16 Este 39 Sudeste 0 -- -- 17
2019-03-28 15:00:00 20.5 14 Sudeste 39 Este 0 -- -- 22
2019-03-28 14:00:00 19.8 18 Este 32 Sudeste 0 -- -- 21
2019-03-28 13:00:00 19.4 14 Sudeste 31 Sur 0 -- -- 25
2019-03-28 12:00:00 16.9 14 Este 23 Este 0 -- -- 42
2019-03-28 11:00:00 15.5 11 Sudeste 20 Sudeste 0 -- -- 48
2019-03-28 10:00:00 13.3 7 Sudeste 13 Sur 0 -- -- 54
2019-03-28 09:00:00 9.5 8 Sudeste 12 Sudeste 0 -- -- 59
2019-03-28 08:00:00 6 10 Sur 14 Sur 0 -- -- 63
2019-03-28 07:00:00 4.9 9 Sur 12 Sur 0 -- -- 62
2019-03-28 06:00:00 5.5 9 Sur 13 Sur 0 -- -- 62
2019-03-28 05:00:00 5.4 8 Sur 11 Sur 0 -- -- 55
2019-03-28 04:00:00 6.3 6 Sur 19 Sudoeste 0 -- -- 48
2019-03-28 03:00:00 7.5 15 Sudoeste 22 Sur 0 -- -- 44
2019-03-28 02:00:00 9 13 Sur 18 Sur 0 -- -- 30
2019-03-28 01:00:00 10.1 6 Sur 15 Sudoeste 0 -- -- 28
2019-03-28 00:00:00 11 7 Sur 13 Sur 0 -- -- 26
2019-03-27 23:00:00 12.3 8 Sur 12 Sur 0 -- -- 26
2019-03-27 22:00:00 13.9 7 Sudeste 14 Sudeste 0 -- -- 25
2019-03-27 21:00:00 15.3 8 Sudeste 17 Sudeste 0 -- -- 24
2019-03-27 20:00:00 17.2 10 Sudeste 26 Este 0 -- -- 22
2019-03-27 19:00:00 19.3 18 Este 36 Este 0 -- -- 20
2019-03-27 18:00:00 20.7 21 Este 38 Este 0 -- -- 20
2019-03-27 17:00:00 21.4 23 Este 42 Este 0 -- -- 19
2019-03-27 16:00:00 21.1 21 Este 43 Este 0 -- -- 20
2019-03-27 15:00:00 20.5 23 Este 37 Este 0 -- -- 22
2019-03-27 14:00:00 19.4 19 Este 42 Este 0 -- -- 24
2019-03-27 13:00:00 17.6 22 Este 40 Sudeste 0 -- -- 32
2019-03-27 12:00:00 16.5 17 Este 36 Este 0 -- -- 36
2019-03-27 11:00:00 15.1 24 Este 36 Este 0 -- -- 39
2019-03-27 10:00:00 13.2 19 Este 30 Este 0 -- -- 49
2019-03-27 09:00:00 10.9 13 Este 22 Este 0 -- -- 55
2019-03-27 08:00:00 9.1 9 Sudeste 14 Este 0 -- -- 59
2019-03-27 07:00:00 8.7 8 Sudeste 13 Sudeste 0 -- -- 61
2019-03-27 06:00:00 9.3 6 Sudeste 13 Sudeste 0 -- -- 61
2019-03-27 05:00:00 10.4 4 Sur 16 Sudeste 0 -- -- 60
2019-03-27 04:00:00 11.6 13 Este 18 Este 0 -- -- 56
2019-03-27 03:00:00 11.6 5 Sudeste 11 Sudeste 0 -- -- 54
2019-03-27 02:00:00 13.2 10 Sudeste 15 Sur 0 -- -- 48
2019-03-27 01:00:00 15.2 12 Sudeste 26 Sudeste 0 -- -- 41
2019-03-27 00:00:00 16.1 10 Sudeste 24 Sudeste 0 -- -- 39